Malcolm, Alabama
Current Conditions -  °F | °C
As of 9:56 AM on Sunday 25 Jan 2015 (Local Time) from KMOB Reporting Station
Clear Clear  
Wind Chill: 54°   Ceiling: Unl
Heat Index: 54°   Visibility: 10mi
Dew Point: 44°   Wind: 13mph
Humidity: 69%   Direction: 200°SSW
Pressure: 30.02"   Gusts: NA
Location:  31.19°N, 88.01°W
Report Text: KMOB 251556Z 20011KT 10SM CLR 12/07 A3002 RMK AO2 SLP166 T01220067
Loading
Personal Weather Stations






























Interactive Weather Map New forecast layout! Learn more

10-Day Weather Forecast

Advertisements
Track Severe Weather on mobile